East Ridge, Tennessee
Current Conditions -  °F | °C
As of 8:53 AM on Wednesday 26 Nov 2014 (Local Time) from KCHA Reporting Station
Clear Clear  
Wind Chill: 44°   Ceiling: Unl
Heat Index: 44°   Visibility: 10mi
Dew Point: 28°   Wind: 3mph
Humidity: 53%   Direction: 310°NW
Pressure: 30.1"   Gusts: NA
Location:  35°N, 85.24°W
Report Text: KCHA 261353Z 31003KT 10SM CLR 07/M02 A3010 RMK AO2 SLP194 T00671022
Loading
Personal Weather Stations






























Interactive Weather Map New forecast layout! Learn more

10-Day Weather Forecast

Advertisements
Track Severe Weather on mobile